sensor_id;sensor_type;location;lat;lon;timestamp;temperature;humidity
40932;DHT22;36257;46.052;12.540;2023-06-26T00:00:45;22.10;89.00
40932;DHT22;36257;46.052;12.540;2023-06-26T00:03:12;22.00;88.90
40932;DHT22;36257;46.052;12.540;2023-06-26T00:05:40;22.00;89.40
40932;DHT22;36257;46.052;12.540;2023-06-26T00:08:06;22.00;89.20
40932;DHT22;36257;46.052;12.540;2023-06-26T00:10:32;22.00;89.20
40932;DHT22;36257;46.052;12.540;2023-06-26T00:12:57;22.00;89.00
40932;DHT22;36257;46.052;12.540;2023-06-26T00:15:23;22.00;88.80
40932;DHT22;36257;46.052;12.540;2023-06-26T00:17:49;22.00;88.60
40932;DHT22;36257;46.052;12.540;2023-06-26T00:20:16;22.00;88.40
40932;DHT22;36257;46.052;12.540;2023-06-26T00:22:41;22.10;88.60
40932;DHT22;36257;46.052;12.540;2023-06-26T00:25:07;22.10;88.40
40932;DHT22;36257;46.052;12.540;2023-06-26T00:27:32;22.00;88.80
40932;DHT22;36257;46.052;12.540;2023-06-26T00:29:58;22.00;88.90
40932;DHT22;36257;46.052;12.540;2023-06-26T00:32:23;22.00;88.80
40932;DHT22;36257;46.052;12.540;2023-06-26T00:34:49;22.00;88.40
40932;DHT22;36257;46.052;12.540;2023-06-26T00:37:14;22.00;88.10
40932;DHT22;36257;46.052;12.540;2023-06-26T00:39:40;22.00;87.50
40932;DHT22;36257;46.052;12.540;2023-06-26T00:42:06;22.10;87.30
40932;DHT22;36257;46.052;12.540;2023-06-26T00:44:31;22.10;87.20
40932;DHT22;36257;46.052;12.540;2023-06-26T00:46:57;22.10;86.60
40932;DHT22;36257;46.052;12.540;2023-06-26T00:49:22;22.10;86.70
40932;DHT22;36257;46.052;12.540;2023-06-26T00:51:48;22.10;86.60
40932;DHT22;36257;46.052;12.540;2023-06-26T00:54:14;22.20;86.40
40932;DHT22;36257;46.052;12.540;2023-06-26T00:56:45;22.20;86.40
40932;DHT22;36257;46.052;12.540;2023-06-26T00:59:11;22.20;86.50
40932;DHT22;36257;46.052;12.540;2023-06-26T01:01:36;22.20;86.00
40932;DHT22;36257;46.052;12.540;2023-06-26T01:04:02;22.20;85.70
40932;DHT22;36257;46.052;12.540;2023-06-26T01:06:28;22.10;85.90
40932;DHT22;36257;46.052;12.540;2023-06-26T01:08:57;22.10;85.60
40932;DHT22;36257;46.052;12.540;2023-06-26T01:11:23;22.10;85.70
40932;DHT22;36257;46.052;12.540;2023-06-26T01:13:48;22.10;84.80
40932;DHT22;36257;46.052;12.540;2023-06-26T01:16:15;22.10;84.80
40932;DHT22;36257;46.052;12.540;2023-06-26T01:18:44;22.10;84.60
40932;DHT22;36257;46.052;12.540;2023-06-26T01:21:11;22.20;84.40
40932;DHT22;36257;46.052;12.540;2023-06-26T01:23:39;22.20;84.00
40932;DHT22;36257;46.052;12.540;2023-06-26T01:26:19;22.20;83.50
40932;DHT22;36257;46.052;12.540;2023-06-26T01:28:45;22.20;83.90
40932;DHT22;36257;46.052;12.540;2023-06-26T01:31:11;22.20;84.20
40932;DHT22;36257;46.052;12.540;2023-06-26T01:33:37;22.20;84.30
40932;DHT22;36257;46.052;12.540;2023-06-26T01:36:03;22.20;84.60
40932;DHT22;36257;46.052;12.540;2023-06-26T01:38:29;22.20;84.80
40932;DHT22;36257;46.052;12.540;2023-06-26T01:40:54;22.20;84.90
40932;DHT22;36257;46.052;12.540;2023-06-26T01:46:06;22.10;85.50
40932;DHT22;36257;46.052;12.540;2023-06-26T01:48:34;22.10;85.80
40932;DHT22;36257;46.052;12.540;2023-06-26T01:51:03;22.10;86.30
40932;DHT22;36257;46.052;12.540;2023-06-26T01:53:31;22.00;86.30
40932;DHT22;36257;46.052;12.540;2023-06-26T01:56:05;21.90;86.80
40932;DHT22;36257;46.052;12.540;2023-06-26T01:58:31;21.80;87.30
40932;DHT22;36257;46.052;12.540;2023-06-26T02:00:57;21.80;87.00
40932;DHT22;36257;46.052;12.540;2023-06-26T02:03:22;21.80;86.70
40932;DHT22;36257;46.052;12.540;2023-06-26T02:05:50;21.80;86.70
40932;DHT22;36257;46.052;12.540;2023-06-26T02:08:16;21.80;87.10
40932;DHT22;36257;46.052;12.540;2023-06-26T02:10:41;21.80;87.10
40932;DHT22;36257;46.052;12.540;2023-06-26T02:13:07;21.80;87.30
40932;DHT22;36257;46.052;12.540;2023-06-26T02:15:32;21.70;87.30
40932;DHT22;36257;46.052;12.540;2023-06-26T02:17:58;21.60;87.70
40932;DHT22;36257;46.052;12.540;2023-06-26T02:20:23;21.60;87.30
40932;DHT22;36257;46.052;12.540;2023-06-26T02:22:49;21.60;87.50
40932;DHT22;36257;46.052;12.540;2023-06-26T02:25:14;21.60;87.70
40932;DHT22;36257;46.052;12.540;2023-06-26T02:27:40;21.60;87.80
40932;DHT22;36257;46.052;12.540;2023-06-26T02:30:07;21.60;87.90
40932;DHT22;36257;46.052;12.540;2023-06-26T02:32:33;21.60;87.30
40932;DHT22;36257;46.052;12.540;2023-06-26T02:34:59;21.60;87.20
40932;DHT22;36257;46.052;12.540;2023-06-26T02:37:24;21.50;87.30
40932;DHT22;36257;46.052;12.540;2023-06-26T02:39:50;21.40;87.50
40932;DHT22;36257;46.052;12.540;2023-06-26T02:42:15;21.40;87.40
40932;DHT22;36257;46.052;12.540;2023-06-26T02:44:41;21.40;87.60
40932;DHT22;36257;46.052;12.540;2023-06-26T02:47:06;21.40;87.30
40932;DHT22;36257;46.052;12.540;2023-06-26T02:49:32;21.40;87.00
40932;DHT22;36257;46.052;12.540;2023-06-26T02:51:57;21.40;87.00
40932;DHT22;36257;46.052;12.540;2023-06-26T02:54:23;21.30;87.00
40932;DHT22;36257;46.052;12.540;2023-06-26T02:56:48;21.30;86.90
40932;DHT22;36257;46.052;12.540;2023-06-26T02:59:14;21.30;87.20
40932;DHT22;36257;46.052;12.540;2023-06-26T03:01:39;21.30;86.50
40932;DHT22;36257;46.052;12.540;2023-06-26T03:04:05;21.30;86.50
40932;DHT22;36257;46.052;12.540;2023-06-26T03:06:30;21.30;86.50
40932;DHT22;36257;46.052;12.540;2023-06-26T03:08:56;21.30;86.30
40932;DHT22;36257;46.052;12.540;2023-06-26T03:11:21;21.40;86.00
40932;DHT22;36257;46.052;12.540;2023-06-26T03:13:47;21.30;86.00
40932;DHT22;36257;46.052;12.540;2023-06-26T03:16:12;21.30;86.30
40932;DHT22;36257;46.052;12.540;2023-06-26T03:18:38;21.40;86.00
40932;DHT22;36257;46.052;12.540;2023-06-26T03:21:04;21.40;85.80
40932;DHT22;36257;46.052;12.540;2023-06-26T03:23:29;21.40;86.00
40932;DHT22;36257;46.052;12.540;2023-06-26T03:25:55;21.40;85.90
40932;DHT22;36257;46.052;12.540;2023-06-26T03:28:20;21.30;86.20
40932;DHT22;36257;46.052;12.540;2023-06-26T03:30:46;21.30;86.10
40932;DHT22;36257;46.052;12.540;2023-06-26T03:33:11;21.20;86.30
40932;DHT22;36257;46.052;12.540;2023-06-26T03:35:37;21.20;86.90
40932;DHT22;36257;46.052;12.540;2023-06-26T03:38:03;21.20;86.60
40932;DHT22;36257;46.052;12.540;2023-06-26T03:40:29;21.20;86.40
40932;DHT22;36257;46.052;12.540;2023-06-26T03:42:54;21.20;86.30
40932;DHT22;36257;46.052;12.540;2023-06-26T03:45:20;21.20;86.20
40932;DHT22;36257;46.052;12.540;2023-06-26T03:47:45;21.10;85.90
40932;DHT22;36257;46.052;12.540;2023-06-26T03:50:14;21.20;85.90
40932;DHT22;36257;46.052;12.540;2023-06-26T03:52:40;21.20;85.90
40932;DHT22;36257;46.052;12.540;2023-06-26T03:55:05;21.30;85.60
40932;DHT22;36257;46.052;12.540;2023-06-26T03:57:31;21.40;85.40
40932;DHT22;36257;46.052;12.540;2023-06-26T03:59:56;21.50;84.80
40932;DHT22;36257;46.052;12.540;2023-06-26T04:02:22;21.50;84.90
40932;DHT22;36257;46.052;12.540;2023-06-26T04:04:48;21.60;84.70
40932;DHT22;36257;46.052;12.540;2023-06-26T04:07:13;21.50;85.10
40932;DHT22;36257;46.052;12.540;2023-06-26T04:09:39;21.60;85.50
40932;DHT22;36257;46.052;12.540;2023-06-26T04:12:05;21.60;85.30
40932;DHT22;36257;46.052;12.540;2023-06-26T04:14:31;21.60;85.20
40932;DHT22;36257;46.052;12.540;2023-06-26T04:16:56;21.70;85.50
40932;DHT22;36257;46.052;12.540;2023-06-26T04:19:23;21.70;85.60
40932;DHT22;36257;46.052;12.540;2023-06-26T04:21:48;21.70;85.70
40932;DHT22;36257;46.052;12.540;2023-06-26T04:24:14;21.70;85.90
40932;DHT22;36257;46.052;12.540;2023-06-26T04:26:39;21.70;86.20
40932;DHT22;36257;46.052;12.540;2023-06-26T04:29:06;21.70;86.20
40932;DHT22;36257;46.052;12.540;2023-06-26T04:31:32;21.80;86.20
40932;DHT22;36257;46.052;12.540;2023-06-26T04:33:57;21.80;86.40
40932;DHT22;36257;46.052;12.540;2023-06-26T04:36:24;21.90;86.50
40932;DHT22;36257;46.052;12.540;2023-06-26T04:38:54;21.90;86.50
40932;DHT22;36257;46.052;12.540;2023-06-26T04:41:19;22.00;86.30
40932;DHT22;36257;46.052;12.540;2023-06-26T04:43:45;22.00;86.50
40932;DHT22;36257;46.052;12.540;2023-06-26T04:46:10;22.10;86.70
40932;DHT22;36257;46.052;12.540;2023-06-26T04:48:36;22.10;86.50
40932;DHT22;36257;46.052;12.540;2023-06-26T04:51:02;22.20;86.10
40932;DHT22;36257;46.052;12.540;2023-06-26T04:53:27;22.30;86.20
40932;DHT22;36257;46.052;12.540;2023-06-26T04:55:53;22.30;86.60
40932;DHT22;36257;46.052;12.540;2023-06-26T04:58:19;22.40;86.40
40932;DHT22;36257;46.052;12.540;2023-06-26T05:00:44;22.60;86.90
40932;DHT22;36257;46.052;12.540;2023-06-26T05:03:11;22.60;87.00
40932;DHT22;36257;46.052;12.540;2023-06-26T05:05:37;22.70;87.10
40932;DHT22;36257;46.052;12.540;2023-06-26T05:08:20;22.80;87.60
40932;DHT22;36257;46.052;12.540;2023-06-26T05:10:46;22.80;87.50
40932;DHT22;36257;46.052;12.540;2023-06-26T05:13:12;22.90;87.60
40932;DHT22;36257;46.052;12.540;2023-06-26T05:15:40;23.00;87.20
40932;DHT22;36257;46.052;12.540;2023-06-26T05:18:07;23.10;86.90
40932;DHT22;36257;46.052;12.540;2023-06-26T05:20:32;23.20;87.10
40932;DHT22;36257;46.052;12.540;2023-06-26T05:22:58;23.30;86.60
40932;DHT22;36257;46.052;12.540;2023-06-26T05:25:24;23.40;88.60
40932;DHT22;36257;46.052;12.540;2023-06-26T05:27:49;23.60;87.50
40932;DHT22;36257;46.052;12.540;2023-06-26T05:30:16;23.80;87.60
40932;DHT22;36257;46.052;12.540;2023-06-26T05:32:41;24.00;87.90
40932;DHT22;36257;46.052;12.540;2023-06-26T05:35:08;24.10;88.10
40932;DHT22;36257;46.052;12.540;2023-06-26T05:37:34;24.30;86.40
40932;DHT22;36257;46.052;12.540;2023-06-26T05:40:00;24.50;85.30
40932;DHT22;36257;46.052;12.540;2023-06-26T05:42:26;24.70;85.20
40932;DHT22;36257;46.052;12.540;2023-06-26T05:44:53;24.90;85.00
40932;DHT22;36257;46.052;12.540;2023-06-26T05:47:18;25.10;84.60
40932;DHT22;36257;46.052;12.540;2023-06-26T05:49:44;25.20;83.40
40932;DHT22;36257;46.052;12.540;2023-06-26T05:52:10;25.40;82.20
40932;DHT22;36257;46.052;12.540;2023-06-26T05:54:35;25.50;78.50
40932;DHT22;36257;46.052;12.540;2023-06-26T05:57:01;25.50;79.50
40932;DHT22;36257;46.052;12.540;2023-06-26T05:59:27;25.60;80.60
40932;DHT22;36257;46.052;12.540;2023-06-26T06:01:54;25.80;81.30
40932;DHT22;36257;46.052;12.540;2023-06-26T06:04:19;25.80;81.60
40932;DHT22;36257;46.052;12.540;2023-06-26T06:06:45;26.00;80.90
40932;DHT22;36257;46.052;12.540;2023-06-26T06:09:10;26.10;79.70
40932;DHT22;36257;46.052;12.540;2023-06-26T06:11:36;26.30;76.60
40932;DHT22;36257;46.052;12.540;2023-06-26T06:14:02;26.50;78.10
40932;DHT22;36257;46.052;12.540;2023-06-26T06:16:28;26.70;76.60
40932;DHT22;36257;46.052;12.540;2023-06-26T06:18:54;26.80;76.30
40932;DHT22;36257;46.052;12.540;2023-06-26T06:21:20;26.90;76.40
40932;DHT22;36257;46.052;12.540;2023-06-26T06:23:45;27.10;75.10
40932;DHT22;36257;46.052;12.540;2023-06-26T06:26:11;27.20;75.60
40932;DHT22;36257;46.052;12.540;2023-06-26T06:28:37;27.40;74.60
40932;DHT22;36257;46.052;12.540;2023-06-26T06:31:03;27.60;74.30
40932;DHT22;36257;46.052;12.540;2023-06-26T06:33:28;27.70;76.20
40932;DHT22;36257;46.052;12.540;2023-06-26T06:35:54;27.80;76.00
40932;DHT22;36257;46.052;12.540;2023-06-26T06:38:20;28.00;74.40
40932;DHT22;36257;46.052;12.540;2023-06-26T06:40:45;28.10;74.70
40932;DHT22;36257;46.052;12.540;2023-06-26T06:43:11;28.20;72.10
40932;DHT22;36257;46.052;12.540;2023-06-26T06:45:36;28.30;71.10
40932;DHT22;36257;46.052;12.540;2023-06-26T06:48:03;28.40;71.90
40932;DHT22;36257;46.052;12.540;2023-06-26T06:50:29;28.50;69.00
40932;DHT22;36257;46.052;12.540;2023-06-26T06:52:54;28.50;71.00
40932;DHT22;36257;46.052;12.540;2023-06-26T06:55:20;28.60;69.80
40932;DHT22;36257;46.052;12.540;2023-06-26T06:57:45;28.80;71.20
40932;DHT22;36257;46.052;12.540;2023-06-26T07:00:11;28.90;71.50
40932;DHT22;36257;46.052;12.540;2023-06-26T07:02:37;29.00;72.00
40932;DHT22;36257;46.052;12.540;2023-06-26T07:05:03;29.20;73.40
40932;DHT22;36257;46.052;12.540;2023-06-26T07:07:30;29.20;68.40
40932;DHT22;36257;46.052;12.540;2023-06-26T07:09:59;29.30;66.00
40932;DHT22;36257;46.052;12.540;2023-06-26T07:12:25;29.30;65.90
40932;DHT22;36257;46.052;12.540;2023-06-26T07:14:50;29.30;66.80
40932;DHT22;36257;46.052;12.540;2023-06-26T07:17:16;29.40;66.40
40932;DHT22;36257;46.052;12.540;2023-06-26T07:19:41;29.50;64.50
40932;DHT22;36257;46.052;12.540;2023-06-26T07:22:07;29.60;67.50
40932;DHT22;36257;46.052;12.540;2023-06-26T07:24:32;29.70;65.40
40932;DHT22;36257;46.052;12.540;2023-06-26T07:26:58;29.70;69.20
40932;DHT22;36257;46.052;12.540;2023-06-26T07:29:23;29.70;64.10
40932;DHT22;36257;46.052;12.540;2023-06-26T07:31:49;29.60;64.90
40932;DHT22;36257;46.052;12.540;2023-06-26T07:34:14;29.60;66.20
40932;DHT22;36257;46.052;12.540;2023-06-26T07:36:40;29.50;63.80
40932;DHT22;36257;46.052;12.540;2023-06-26T07:39:05;29.60;66.80
40932;DHT22;36257;46.052;12.540;2023-06-26T07:41:31;29.80;63.00
40932;DHT22;36257;46.052;12.540;2023-06-26T07:43:57;29.90;66.50
40932;DHT22;36257;46.052;12.540;2023-06-26T07:46:23;30.10;63.80
40932;DHT22;36257;46.052;12.540;2023-06-26T07:48:49;30.30;63.60
40932;DHT22;36257;46.052;12.540;2023-06-26T07:51:14;30.50;64.90
40932;DHT22;36257;46.052;12.540;2023-06-26T07:53:40;30.70;64.40
40932;DHT22;36257;46.052;12.540;2023-06-26T07:56:05;30.70;64.90
40932;DHT22;36257;46.052;12.540;2023-06-26T07:58:31;30.70;62.40
40932;DHT22;36257;46.052;12.540;2023-06-26T08:00:56;30.70;60.60
40932;DHT22;36257;46.052;12.540;2023-06-26T08:03:22;30.70;66.60
40932;DHT22;36257;46.052;12.540;2023-06-26T08:05:49;31.00;63.50
40932;DHT22;36257;46.052;12.540;2023-06-26T08:08:14;31.20;62.10
40932;DHT22;36257;46.052;12.540;2023-06-26T08:10:40;31.40;62.50
40932;DHT22;36257;46.052;12.540;2023-06-26T08:13:05;31.10;60.60
40932;DHT22;36257;46.052;12.540;2023-06-26T08:15:31;31.10;63.30
40932;DHT22;36257;46.052;12.540;2023-06-26T08:17:56;31.30;64.60
40932;DHT22;36257;46.052;12.540;2023-06-26T08:20:22;31.50;61.00
40932;DHT22;36257;46.052;12.540;2023-06-26T08:22:48;31.70;60.00
40932;DHT22;36257;46.052;12.540;2023-06-26T08:25:15;31.70;61.90
40932;DHT22;36257;46.052;12.540;2023-06-26T08:27:41;31.60;61.10
40932;DHT22;36257;46.052;12.540;2023-06-26T08:30:06;31.50;61.10
40932;DHT22;36257;46.052;12.540;2023-06-26T08:32:32;31.50;65.60
40932;DHT22;36257;46.052;12.540;2023-06-26T08:34:58;31.70;61.50
40932;DHT22;36257;46.052;12.540;2023-06-26T08:37:23;31.60;62.80
40932;DHT22;36257;46.052;12.540;2023-06-26T08:39:49;31.70;63.80
40932;DHT22;36257;46.052;12.540;2023-06-26T08:42:14;31.80;62.40
40932;DHT22;36257;46.052;12.540;2023-06-26T08:44:40;31.90;63.10
40932;DHT22;36257;46.052;12.540;2023-06-26T08:47:05;32.10;63.70
40932;DHT22;36257;46.052;12.540;2023-06-26T08:49:40;32.30;61.00
40932;DHT22;36257;46.052;12.540;2023-06-26T08:52:17;32.20;61.60
40932;DHT22;36257;46.052;12.540;2023-06-26T08:54:49;32.20;60.10
40932;DHT22;36257;46.052;12.540;2023-06-26T08:57:18;32.10;61.30
40932;DHT22;36257;46.052;12.540;2023-06-26T08:59:45;31.90;62.40
40932;DHT22;36257;46.052;12.540;2023-06-26T09:02:11;32.00;62.90
40932;DHT22;36257;46.052;12.540;2023-06-26T09:04:37;32.00;63.40
40932;DHT22;36257;46.052;12.540;2023-06-26T09:07:04;32.00;59.40
40932;DHT22;36257;46.052;12.540;2023-06-26T09:09:29;32.20;61.80
40932;DHT22;36257;46.052;12.540;2023-06-26T09:11:55;32.30;61.90
40932;DHT22;36257;46.052;12.540;2023-06-26T09:14:21;32.40;62.10
40932;DHT22;36257;46.052;12.540;2023-06-26T09:16:46;32.50;59.20
40932;DHT22;36257;46.052;12.540;2023-06-26T09:19:12;32.50;59.20
40932;DHT22;36257;46.052;12.540;2023-06-26T09:21:38;32.50;59.90
40932;DHT22;36257;46.052;12.540;2023-06-26T09:24:04;32.50;62.10
40932;DHT22;36257;46.052;12.540;2023-06-26T09:26:30;32.70;61.10
40932;DHT22;36257;46.052;12.540;2023-06-26T09:28:56;32.70;61.10
40932;DHT22;36257;46.052;12.540;2023-06-26T09:31:23;32.70;58.00
40932;DHT22;36257;46.052;12.540;2023-06-26T09:33:49;32.70;62.50
40932;DHT22;36257;46.052;12.540;2023-06-26T09:36:20;32.70;59.80
40932;DHT22;36257;46.052;12.540;2023-06-26T09:38:50;32.70;58.90
40932;DHT22;36257;46.052;12.540;2023-06-26T09:41:19;32.60;59.50
40932;DHT22;36257;46.052;12.540;2023-06-26T09:43:45;32.60;61.40
40932;DHT22;36257;46.052;12.540;2023-06-26T09:46:15;32.90;59.70
40932;DHT22;36257;46.052;12.540;2023-06-26T09:48:40;33.00;60.80
40932;DHT22;36257;46.052;12.540;2023-06-26T09:51:06;33.10;61.30
40932;DHT22;36257;46.052;12.540;2023-06-26T09:53:31;33.00;59.00
40932;DHT22;36257;46.052;12.540;2023-06-26T09:56:04;33.00;59.40
40932;DHT22;36257;46.052;12.540;2023-06-26T09:58:30;33.00;65.20
40932;DHT22;36257;46.052;12.540;2023-06-26T10:00:55;33.20;61.30
40932;DHT22;36257;46.052;12.540;2023-06-26T10:03:21;33.50;58.90
40932;DHT22;36257;46.052;12.540;2023-06-26T10:05:46;33.80;60.80
40932;DHT22;36257;46.052;12.540;2023-06-26T10:08:13;33.80;59.60
40932;DHT22;36257;46.052;12.540;2023-06-26T10:10:39;34.00;61.50
40932;DHT22;36257;46.052;12.540;2023-06-26T10:13:11;34.10;60.20
40932;DHT22;36257;46.052;12.540;2023-06-26T10:15:39;34.10;58.70
40932;DHT22;36257;46.052;12.540;2023-06-26T10:18:06;34.10;60.10
40932;DHT22;36257;46.052;12.540;2023-06-26T10:20:32;34.00;56.20
40932;DHT22;36257;46.052;12.540;2023-06-26T10:22:57;34.00;59.40
40932;DHT22;36257;46.052;12.540;2023-06-26T10:25:26;34.10;60.00
40932;DHT22;36257;46.052;12.540;2023-06-26T10:27:55;34.30;58.80
40932;DHT22;36257;46.052;12.540;2023-06-26T10:30:23;34.50;60.00
40932;DHT22;36257;46.052;12.540;2023-06-26T10:32:51;34.60;58.60
40932;DHT22;36257;46.052;12.540;2023-06-26T10:35:16;34.60;58.20
40932;DHT22;36257;46.052;12.540;2023-06-26T10:37:46;34.50;57.10
40932;DHT22;36257;46.052;12.540;2023-06-26T10:40:21;34.40;59.50
40932;DHT22;36257;46.052;12.540;2023-06-26T10:42:46;34.40;57.70
40932;DHT22;36257;46.052;12.540;2023-06-26T10:45:16;34.40;59.70
40932;DHT22;36257;46.052;12.540;2023-06-26T10:47:44;34.20;57.70
40932;DHT22;36257;46.052;12.540;2023-06-26T10:52:43;34.50;62.00
40932;DHT22;36257;46.052;12.540;2023-06-26T10:55:08;34.70;58.70
40932;DHT22;36257;46.052;12.540;2023-06-26T10:57:35;34.60;59.80
40932;DHT22;36257;46.052;12.540;2023-06-26T11:00:13;34.70;59.30
40932;DHT22;36257;46.052;12.540;2023-06-26T11:02:52;34.50;57.30
40932;DHT22;36257;46.052;12.540;2023-06-26T11:05:24;34.40;57.40
40932;DHT22;36257;46.052;12.540;2023-06-26T11:08:09;34.70;60.40
40932;DHT22;36257;46.052;12.540;2023-06-26T11:10:52;34.80;57.10
40932;DHT22;36257;46.052;12.540;2023-06-26T11:13:18;34.90;59.50
40932;DHT22;36257;46.052;12.540;2023-06-26T11:15:45;35.10;59.70
40932;DHT22;36257;46.052;12.540;2023-06-26T11:18:10;35.00;58.30
40932;DHT22;36257;46.052;12.540;2023-06-26T11:20:36;35.20;60.20
40932;DHT22;36257;46.052;12.540;2023-06-26T11:23:01;35.20;60.50
40932;DHT22;36257;46.052;12.540;2023-06-26T11:25:28;35.20;59.10
40932;DHT22;36257;46.052;12.540;2023-06-26T11:27:54;35.20;59.70
40932;DHT22;36257;46.052;12.540;2023-06-26T11:30:23;35.00;59.40
40932;DHT22;36257;46.052;12.540;2023-06-26T11:32:49;35.10;62.00
40932;DHT22;36257;46.052;12.540;2023-06-26T11:35:24;35.40;58.90
40932;DHT22;36257;46.052;12.540;2023-06-26T11:37:56;35.50;60.80
40932;DHT22;36257;46.052;12.540;2023-06-26T11:40:22;35.50;57.70
40932;DHT22;36257;46.052;12.540;2023-06-26T11:42:55;35.40;58.20
40932;DHT22;36257;46.052;12.540;2023-06-26T11:45:21;35.40;58.00
40932;DHT22;36257;46.052;12.540;2023-06-26T11:47:47;35.20;56.80
40932;DHT22;36257;46.052;12.540;2023-06-26T11:50:15;35.30;62.10
40932;DHT22;36257;46.052;12.540;2023-06-26T11:52:42;35.40;59.50
40932;DHT22;36257;46.052;12.540;2023-06-26T11:55:08;35.20;59.20
40932;DHT22;36257;46.052;12.540;2023-06-26T11:57:36;35.30;59.40
40932;DHT22;36257;46.052;12.540;2023-06-26T12:00:14;35.10;58.30
40932;DHT22;36257;46.052;12.540;2023-06-26T12:02:40;35.00;60.60
40932;DHT22;36257;46.052;12.540;2023-06-26T12:05:06;34.90;58.50
40932;DHT22;36257;46.052;12.540;2023-06-26T12:07:31;35.00;59.30
40932;DHT22;36257;46.052;12.540;2023-06-26T12:09:57;35.00;62.90
40932;DHT22;36257;46.052;12.540;2023-06-26T12:12:23;35.10;58.20
40932;DHT22;36257;46.052;12.540;2023-06-26T12:14:50;34.90;59.00
40932;DHT22;36257;46.052;12.540;2023-06-26T12:17:16;35.10;60.40
40932;DHT22;36257;46.052;12.540;2023-06-26T12:19:45;35.30;60.30
40932;DHT22;36257;46.052;12.540;2023-06-26T12:22:15;35.30;59.00
40932;DHT22;36257;46.052;12.540;2023-06-26T12:24:40;35.20;60.00
40932;DHT22;36257;46.052;12.540;2023-06-26T12:27:09;35.30;59.30
40932;DHT22;36257;46.052;12.540;2023-06-26T12:29:35;35.00;58.10
40932;DHT22;36257;46.052;12.540;2023-06-26T12:32:00;34.70;63.10
40932;DHT22;36257;46.052;12.540;2023-06-26T12:34:27;34.70;59.40
40932;DHT22;36257;46.052;12.540;2023-06-26T12:36:53;34.70;58.60
40932;DHT22;36257;46.052;12.540;2023-06-26T12:39:19;34.80;60.30
40932;DHT22;36257;46.052;12.540;2023-06-26T12:41:53;35.00;62.30
40932;DHT22;36257;46.052;12.540;2023-06-26T12:44:26;35.20;63.20
40932;DHT22;36257;46.052;12.540;2023-06-26T12:46:59;35.30;61.10
40932;DHT22;36257;46.052;12.540;2023-06-26T12:49:41;35.30;59.00
40932;DHT22;36257;46.052;12.540;2023-06-26T12:52:08;35.10;60.10
40932;DHT22;36257;46.052;12.540;2023-06-26T12:54:34;35.30;62.70
40932;DHT22;36257;46.052;12.540;2023-06-26T12:57:00;35.20;59.70
40932;DHT22;36257;46.052;12.540;2023-06-26T12:59:25;35.20;59.70
40932;DHT22;36257;46.052;12.540;2023-06-26T13:01:51;35.30;61.30
40932;DHT22;36257;46.052;12.540;2023-06-26T13:04:17;35.30;64.30
40932;DHT22;36257;46.052;12.540;2023-06-26T13:06:42;35.30;60.80
40932;DHT22;36257;46.052;12.540;2023-06-26T13:09:08;35.20;60.20
40932;DHT22;36257;46.052;12.540;2023-06-26T13:11:34;35.20;61.20
40932;DHT22;36257;46.052;12.540;2023-06-26T13:14:01;35.20;61.40
40932;DHT22;36257;46.052;12.540;2023-06-26T13:16:26;35.20;62.60
40932;DHT22;36257;46.052;12.540;2023-06-26T13:18:52;35.30;61.90
40932;DHT22;36257;46.052;12.540;2023-06-26T13:21:17;35.30;59.50
40932;DHT22;36257;46.052;12.540;2023-06-26T13:23:44;35.20;58.90
40932;DHT22;36257;46.052;12.540;2023-06-26T13:26:09;35.00;62.00
40932;DHT22;36257;46.052;12.540;2023-06-26T13:28:35;35.00;60.40
40932;DHT22;36257;46.052;12.540;2023-06-26T13:31:01;35.00;60.30
40932;DHT22;36257;46.052;12.540;2023-06-26T13:33:26;35.00;61.40
40932;DHT22;36257;46.052;12.540;2023-06-26T13:35:52;35.10;62.00
40932;DHT22;36257;46.052;12.540;2023-06-26T13:38:21;35.20;62.20
40932;DHT22;36257;46.052;12.540;2023-06-26T13:40:56;35.20;62.40
40932;DHT22;36257;46.052;12.540;2023-06-26T13:43:26;35.30;60.50
40932;DHT22;36257;46.052;12.540;2023-06-26T13:45:52;35.30;60.90
40932;DHT22;36257;46.052;12.540;2023-06-26T13:48:17;35.30;62.20
40932;DHT22;36257;46.052;12.540;2023-06-26T13:50:43;35.30;62.20
40932;DHT22;36257;46.052;12.540;2023-06-26T13:53:08;35.30;63.10
40932;DHT22;36257;46.052;12.540;2023-06-26T13:55:34;35.20;59.60
40932;DHT22;36257;46.052;12.540;2023-06-26T13:58:00;35.10;61.40
40932;DHT22;36257;46.052;12.540;2023-06-26T14:00:34;35.10;59.60
40932;DHT22;36257;46.052;12.540;2023-06-26T14:03:00;35.10;59.90
40932;DHT22;36257;46.052;12.540;2023-06-26T14:05:25;35.10;60.00
40932;DHT22;36257;46.052;12.540;2023-06-26T14:07:51;35.10;60.00
40932;DHT22;36257;46.052;12.540;2023-06-26T14:10:16;35.00;61.30
40932;DHT22;36257;46.052;12.540;2023-06-26T14:12:42;35.00;62.10
40932;DHT22;36257;46.052;12.540;2023-06-26T14:15:08;34.90;60.50
40932;DHT22;36257;46.052;12.540;2023-06-26T14:17:33;34.90;60.60
40932;DHT22;36257;46.052;12.540;2023-06-26T14:19:59;34.80;63.70
40932;DHT22;36257;46.052;12.540;2023-06-26T14:22:24;34.70;61.00
40932;DHT22;36257;46.052;12.540;2023-06-26T14:24:50;34.70;62.20
40932;DHT22;36257;46.052;12.540;2023-06-26T14:27:16;34.70;60.00
40932;DHT22;36257;46.052;12.540;2023-06-26T14:29:41;34.60;60.30
40932;DHT22;36257;46.052;12.540;2023-06-26T14:32:07;34.70;60.60
40932;DHT22;36257;46.052;12.540;2023-06-26T14:34:32;34.60;61.60
40932;DHT22;36257;46.052;12.540;2023-06-26T14:36:58;34.50;59.60
40932;DHT22;36257;46.052;12.540;2023-06-26T14:39:23;34.50;59.30
40932;DHT22;36257;46.052;12.540;2023-06-26T14:41:49;34.40;59.30
40932;DHT22;36257;46.052;12.540;2023-06-26T14:44:15;34.30;63.70
40932;DHT22;36257;46.052;12.540;2023-06-26T14:46:41;34.20;61.30
40932;DHT22;36257;46.052;12.540;2023-06-26T14:49:06;34.20;60.30
40932;DHT22;36257;46.052;12.540;2023-06-26T14:51:32;34.20;59.00
40932;DHT22;36257;46.052;12.540;2023-06-26T14:53:57;34.10;59.60
40932;DHT22;36257;46.052;12.540;2023-06-26T14:56:23;34.00;61.60
40932;DHT22;36257;46.052;12.540;2023-06-26T14:58:49;33.90;59.70
40932;DHT22;36257;46.052;12.540;2023-06-26T15:01:16;33.90;64.00
40932;DHT22;36257;46.052;12.540;2023-06-26T15:03:42;33.90;63.10
40932;DHT22;36257;46.052;12.540;2023-06-26T15:06:07;33.90;62.50
40932;DHT22;36257;46.052;12.540;2023-06-26T15:08:34;33.90;63.80
40932;DHT22;36257;46.052;12.540;2023-06-26T15:11:00;33.90;62.80
40932;DHT22;36257;46.052;12.540;2023-06-26T15:13:26;33.80;61.60
40932;DHT22;36257;46.052;12.540;2023-06-26T15:15:51;33.70;61.70